Weather at Bar River Seaplane Base

Public forecast

Using degrees Celsius for public forecast. Weather courtesy of forecast.io.

Closest aviation weather report (METAR) to Bar River Seaplane Base

Closest report is Sault Ste Marie Municipal Sanderson Field, 11.7 nm (21.7 km) WNW. Retrieved 2021/08/04 04:55 UTC (1 hour ago):

KANJ 040455Z AUTO 00000KT 6SM HZ CLR 17/14 A3003 RMK AO2 SLP165 T01670139 402780156

Closest aviation forecast (TAF) to Bar River Seaplane Base

Closest forecast is Sault Ste Marie Airport, 17.4 nm (32.3 km) WNW. Retrieved 2021-08-04 02:42 UTC (3 hours ago):

TAF TAF CYAM 040139Z 0402/0414 28005KT P6SM FEW180 SCT240 TEMPO 0402/0414 5SM FU HZ BKN080 OVC180 BECMG 0406/0408 18005KT RMK NXT FCST BY 040800Z